createdAt,value
2018-12-16T00:00:24.707Z,37.41
2018-12-16T00:01:24.719Z,37.51
2018-12-16T00:02:24.691Z,37.92
2018-12-16T00:03:24.681Z,38.02
2018-12-16T00:04:24.661Z,37.82
2018-12-16T00:05:24.665Z,37.92
2018-12-16T00:06:24.645Z,36.91
2018-12-16T00:07:24.642Z,37.51
2018-12-16T00:08:24.631Z,36.79
2018-12-16T00:09:24.618Z,37.09
2018-12-16T00:10:24.604Z,36.59
2018-12-16T00:11:24.609Z,36.81
2018-12-16T00:12:24.591Z,36.61
2018-12-16T00:13:24.573Z,37.29
2018-12-16T00:14:24.574Z,36.99
2018-12-16T00:15:24.559Z,37.31
2018-12-16T00:16:24.538Z,37.19
2018-12-16T00:17:24.535Z,36.79
2018-12-16T00:18:24.531Z,36.89
2018-12-16T00:19:24.513Z,37.19
2018-12-16T00:20:24.503Z,36.99
2018-12-16T00:21:24.491Z,36.99
2018-12-16T00:22:29.825Z,37.09
2018-12-16T00:23:25.475Z,36.69
2018-12-16T00:24:24.455Z,37.09
2018-12-16T00:25:24.454Z,37.19
2018-12-16T00:26:24.434Z,36.59
2018-12-16T00:27:24.431Z,37.09
2018-12-16T00:28:24.421Z,37.21
2018-12-16T00:29:24.410Z,37.01
2018-12-16T00:30:24.395Z,37.29
2018-12-16T00:31:24.383Z,37.01
2018-12-16T00:32:24.378Z,37.19
2018-12-16T00:33:24.375Z,37.51
2018-12-16T00:34:24.370Z,37.01
2018-12-16T00:35:24.346Z,37.21
2018-12-16T00:36:24.328Z,36.81
2018-12-16T00:37:24.329Z,36.71
2018-12-16T00:38:24.302Z,36.71
2018-12-16T00:39:24.302Z,36.81
2018-12-16T00:40:24.433Z,37.41
2018-12-16T00:41:24.281Z,36.81
2018-12-16T00:42:24.273Z,36.81
2018-12-16T00:43:24.266Z,37.01
2018-12-16T00:44:24.253Z,37.29
2018-12-16T00:45:24.237Z,37.11
2018-12-16T00:46:24.220Z,37.01
2018-12-16T00:47:24.214Z,37.19
2018-12-16T00:48:24.198Z,36.99
2018-12-16T00:49:24.193Z,37.40
2018-12-16T00:50:24.184Z,37.01
2018-12-16T00:51:24.174Z,36.79
2018-12-16T00:52:24.167Z,37.31
2018-12-16T00:53:24.149Z,37.01
2018-12-16T00:54:24.147Z,37.41
2018-12-16T00:55:24.133Z,37.01
2018-12-16T00:56:24.117Z,36.81
2018-12-16T00:57:24.107Z,37.21
2018-12-16T00:58:24.097Z,37.41
2018-12-16T00:59:24.087Z,37.11
2018-12-16T01:00:24.089Z,37.01
2018-12-16T01:01:24.066Z,36.81
2018-12-16T01:02:24.056Z,36.51
2018-12-16T01:03:24.045Z,36.81
2018-12-16T01:04:24.032Z,36.61
2018-12-16T01:05:24.025Z,36.79
2018-12-16T01:06:24.009Z,37.21
2018-12-16T01:07:24.011Z,37.01
2018-12-16T01:08:24.062Z,37.01
2018-12-16T01:09:23.980Z,36.79
2018-12-16T01:10:23.964Z,36.29
2018-12-16T01:11:23.960Z,36.19
2018-12-16T01:12:23.965Z,36.08
2018-12-16T01:13:23.939Z,35.99
2018-12-16T01:14:23.937Z,36.17
2018-12-16T01:15:23.919Z,36.17
2018-12-16T01:16:23.907Z,35.68
2018-12-16T01:17:23.896Z,35.77
2018-12-16T01:18:23.885Z,35.77
2018-12-16T01:19:23.882Z,36.29
2018-12-16T01:20:23.872Z,35.77
2018-12-16T01:21:23.856Z,36.27
2018-12-16T01:22:23.838Z,36.07
2018-12-16T01:23:23.833Z,35.57
2018-12-16T01:24:23.823Z,35.97
2018-12-16T01:25:23.812Z,35.78
2018-12-16T01:26:23.803Z,36.07
2018-12-16T01:27:23.789Z,35.77
2018-12-16T01:28:23.779Z,36.17
2018-12-16T01:29:23.765Z,35.97
2018-12-16T01:30:23.760Z,36.07
2018-12-16T01:31:23.751Z,35.77
2018-12-16T01:32:23.750Z,36.17
2018-12-16T01:33:23.727Z,35.77
2018-12-16T01:34:23.717Z,36.08
2018-12-16T01:35:23.739Z,36.07
2018-12-16T01:36:23.693Z,35.99
2018-12-16T01:37:23.686Z,36.08
2018-12-16T01:38:23.670Z,35.88
2018-12-16T01:39:23.658Z,35.78
2018-12-16T01:40:23.651Z,35.99
2018-12-16T01:41:23.700Z,35.78
2018-12-16T01:42:23.633Z,35.99
2018-12-16T01:43:23.624Z,35.78
2018-12-16T01:44:24.560Z,35.86
2018-12-16T01:45:23.601Z,36.19
2018-12-16T01:46:23.593Z,36.29
2018-12-16T01:47:23.576Z,35.66
2018-12-16T01:48:23.574Z,36.08
2018-12-16T01:49:23.564Z,35.99
2018-12-16T01:50:23.570Z,36.08
2018-12-16T01:51:23.536Z,35.78
2018-12-16T01:52:23.530Z,36.19
2018-12-16T01:53:23.516Z,36.08
2018-12-16T01:54:23.501Z,35.97
2018-12-16T01:55:23.500Z,35.88
2018-12-16T01:56:23.480Z,36.19
2018-12-16T01:57:23.490Z,35.97
2018-12-16T01:58:23.507Z,35.86
2018-12-16T01:59:23.455Z,36.07
2018-12-16T02:00:23.438Z,35.77
2018-12-16T02:01:23.430Z,35.86
2018-12-16T02:02:23.420Z,36.07
2018-12-16T02:03:23.412Z,36.57
2018-12-16T02:04:23.400Z,35.86
2018-12-16T02:05:23.386Z,36.17
2018-12-16T02:06:23.377Z,36.07
2018-12-16T02:07:23.365Z,36.07
2018-12-16T02:08:23.354Z,35.97
2018-12-16T02:09:23.353Z,35.97
2018-12-16T02:10:23.348Z,35.86
2018-12-16T02:11:23.327Z,36.27
2018-12-16T02:12:23.355Z,35.86
2018-12-16T02:13:23.305Z,36.08
2018-12-16T02:14:23.371Z,35.86
2018-12-16T02:15:23.296Z,35.97
2018-12-16T02:16:23.272Z,35.97
2018-12-16T02:17:23.275Z,36.27
2018-12-16T02:18:23.263Z,36.07
2018-12-16T02:19:23.243Z,35.97
2018-12-16T02:20:23.234Z,36.08
2018-12-16T02:21:23.224Z,35.78
2018-12-16T02:22:23.210Z,35.78
2018-12-16T02:23:23.203Z,35.78
2018-12-16T02:24:23.188Z,36.08
2018-12-16T02:25:23.176Z,35.88
2018-12-16T02:26:23.169Z,35.99
2018-12-16T02:27:23.183Z,36.08
2018-12-16T02:28:23.147Z,36.08
2018-12-16T02:29:23.135Z,35.97
2018-12-16T02:30:23.130Z,35.88
2018-12-16T02:31:23.117Z,35.77
2018-12-16T02:32:23.113Z,35.99
2018-12-16T02:33:23.113Z,35.97
2018-12-16T02:34:23.097Z,35.78
2018-12-16T02:35:23.074Z,35.88
2018-12-16T02:36:23.082Z,36.08
2018-12-16T02:37:23.046Z,35.78
2018-12-16T02:38:23.039Z,35.86
2018-12-16T02:39:23.041Z,35.86
2018-12-16T02:40:23.024Z,36.07
2018-12-16T02:41:23.020Z,35.97
2018-12-16T02:42:22.999Z,35.86
2018-12-16T02:43:22.987Z,36.07
2018-12-16T02:44:22.975Z,36.27
2018-12-16T02:45:23.004Z,35.66
2018-12-16T02:46:22.971Z,35.46
2018-12-16T02:47:22.949Z,35.06
2018-12-16T02:48:22.932Z,35.36
2018-12-16T02:49:22.930Z,35.66
2018-12-16T02:50:22.912Z,35.45
2018-12-16T02:51:22.902Z,35.46
2018-12-16T02:52:22.892Z,35.75
2018-12-16T02:53:22.885Z,35.57
2018-12-16T02:54:22.871Z,35.26
2018-12-16T02:55:22.869Z,35.57
2018-12-16T02:56:22.854Z,35.66
2018-12-16T02:57:22.839Z,35.46
2018-12-16T02:58:22.842Z,35.57
2018-12-16T02:59:22.828Z,35.77
2018-12-16T03:00:22.803Z,35.25
2018-12-16T03:01:22.802Z,35.25
2018-12-16T03:02:22.789Z,35.45
2018-12-16T03:03:22.772Z,35.45
2018-12-16T03:04:22.781Z,34.84
2018-12-16T03:05:22.756Z,35.25
2018-12-16T03:06:22.750Z,34.84
2018-12-16T03:07:22.736Z,34.94
2018-12-16T03:08:22.727Z,35.05
2018-12-16T03:09:22.719Z,35.45
2018-12-16T03:10:22.703Z,35.25
2018-12-16T03:11:22.687Z,35.45
2018-12-16T03:12:22.683Z,34.64
2018-12-16T03:13:22.665Z,35.14
2018-12-16T03:14:22.675Z,34.74
2018-12-16T03:15:22.658Z,35.25
2018-12-16T03:16:22.639Z,35.05
2018-12-16T03:17:24.633Z,35.14
2018-12-16T03:18:22.617Z,35.25
2018-12-16T03:19:22.605Z,35.14
2018-12-16T03:20:22.609Z,35.05
2018-12-16T03:21:22.594Z,35.35
2018-12-16T03:22:22.572Z,35.45
2018-12-16T03:23:22.562Z,35.45
2018-12-16T03:24:22.547Z,35.35
2018-12-16T03:25:22.548Z,35.25
2018-12-16T03:26:22.532Z,35.05
2018-12-16T03:27:22.527Z,35.35
2018-12-16T03:28:22.526Z,35.55
2018-12-16T03:29:22.499Z,35.25
2018-12-16T03:30:23.421Z,35.35
2018-12-16T03:31:22.491Z,35.25
2018-12-16T03:32:22.480Z,35.35
2018-12-16T03:33:22.461Z,35.35
2018-12-16T03:34:22.450Z,34.74
2018-12-16T03:35:22.441Z,34.74
2018-12-16T03:36:22.427Z,34.64
2018-12-16T03:37:22.414Z,35.35
2018-12-16T03:38:22.411Z,34.74
2018-12-16T03:39:22.401Z,34.76
2018-12-16T03:40:22.382Z,35.06
2018-12-16T03:41:22.373Z,35.05
2018-12-16T03:42:22.360Z,35.06
2018-12-16T03:43:22.353Z,35.46
2018-12-16T03:44:22.346Z,35.06
2018-12-16T03:45:22.332Z,34.86
2018-12-16T03:46:22.319Z,34.76
2018-12-16T03:47:22.307Z,34.66
2018-12-16T03:48:22.304Z,34.74
2018-12-16T03:49:22.285Z,34.76
2018-12-16T03:50:22.337Z,35.16
2018-12-16T03:51:22.265Z,34.96
2018-12-16T03:52:22.257Z,35.36
2018-12-16T03:53:22.243Z,35.06
2018-12-16T03:54:22.243Z,34.86
2018-12-16T03:55:22.231Z,34.76
2018-12-16T03:56:22.220Z,34.76
2018-12-16T03:57:22.201Z,34.94
2018-12-16T03:58:22.200Z,35.35
2018-12-16T03:59:22.180Z,35.35
2018-12-16T04:00:22.169Z,35.35
2018-12-16T04:01:22.165Z,34.22
2018-12-16T04:02:22.148Z,34.14
2018-12-16T04:03:22.138Z,34.44
2018-12-16T04:04:22.128Z,34.14
2018-12-16T04:05:22.120Z,34.44
2018-12-16T04:06:22.113Z,34.14
2018-12-16T04:07:22.102Z,34.32
2018-12-16T04:08:22.088Z,34.54
2018-12-16T04:09:22.074Z,34.72
2018-12-16T04:10:22.063Z,34.72
2018-12-16T04:11:22.056Z,34.52
2018-12-16T04:12:22.045Z,34.83
2018-12-16T04:13:22.066Z,34.54
2018-12-16T04:14:22.029Z,34.52
2018-12-16T04:15:22.012Z,34.72
2018-12-16T04:16:22.004Z,34.34
2018-12-16T04:17:22.006Z,34.84
2018-12-16T04:18:21.983Z,34.74
2018-12-16T04:19:21.967Z,34.34
2018-12-16T04:20:21.954Z,34.44
2018-12-16T04:21:21.953Z,34.54
2018-12-16T04:22:21.935Z,34.44
2018-12-16T04:23:27.421Z,34.04
2018-12-16T04:24:22.925Z,34.44
2018-12-16T04:25:21.908Z,34.44
2018-12-16T04:26:21.894Z,34.54
2018-12-16T04:27:21.885Z,34.63
2018-12-16T04:28:21.874Z,34.64
2018-12-16T04:29:21.882Z,34.22
2018-12-16T04:30:21.859Z,33.92
2018-12-16T04:31:21.843Z,34.44
2018-12-16T04:32:21.833Z,34.32
2018-12-16T04:33:21.825Z,34.64
2018-12-16T04:34:21.810Z,34.24
2018-12-16T04:35:21.799Z,34.84
2018-12-16T04:36:21.788Z,34.84
2018-12-16T04:37:21.784Z,34.64
2018-12-16T04:38:21.775Z,34.54
2018-12-16T04:39:21.765Z,34.84
2018-12-16T04:40:21.757Z,34.44
2018-12-16T04:41:21.742Z,34.14
2018-12-16T04:42:21.737Z,34.34
2018-12-16T04:43:21.723Z,34.54
2018-12-16T04:44:21.706Z,34.64
2018-12-16T04:45:21.718Z,34.44
2018-12-16T04:46:21.684Z,34.54
2018-12-16T04:47:21.672Z,34.84
2018-12-16T04:48:21.711Z,34.54
2018-12-16T04:49:21.650Z,34.54
2018-12-16T04:50:21.649Z,34.44
2018-12-16T04:51:21.630Z,34.44
2018-12-16T04:52:21.637Z,34.83
2018-12-16T04:53:21.615Z,34.54
2018-12-16T04:54:21.599Z,34.24
2018-12-16T04:55:21.589Z,35.45
2018-12-16T04:56:21.574Z,34.24
2018-12-16T04:57:21.576Z,34.14
2018-12-16T04:58:21.553Z,34.34
2018-12-16T04:59:21.545Z,34.54
2018-12-16T05:00:21.540Z,34.24
2018-12-16T05:01:21.523Z,34.24
2018-12-16T05:02:21.524Z,34.24
2018-12-16T05:03:21.505Z,34.14
2018-12-16T05:04:21.511Z,35.05
2018-12-16T05:05:21.488Z,34.14
2018-12-16T05:06:21.472Z,34.04
2018-12-16T05:07:21.468Z,34.34
2018-12-16T05:08:21.458Z,34.34
2018-12-16T05:09:21.519Z,34.84
2018-12-16T05:10:21.433Z,34.64
2018-12-16T05:11:21.419Z,34.44
2018-12-16T05:12:21.412Z,34.44
2018-12-16T05:13:21.393Z,34.64
2018-12-16T05:14:21.384Z,34.63
2018-12-16T05:15:21.382Z,34.74
2018-12-16T05:16:21.366Z,34.84
2018-12-16T05:17:21.359Z,34.54
2018-12-16T05:18:21.350Z,34.92
2018-12-16T05:19:21.331Z,34.32
2018-12-16T05:20:21.323Z,33.62
2018-12-16T05:21:21.314Z,34.42
2018-12-16T05:22:21.301Z,34.12
2018-12-16T05:23:21.285Z,34.42
2018-12-16T05:24:21.282Z,34.02
2018-12-16T05:25:21.269Z,34.02
2018-12-16T05:26:21.255Z,34.32
2018-12-16T05:27:21.248Z,34.22
2018-12-16T05:28:21.245Z,34.32
2018-12-16T05:29:21.232Z,33.92
2018-12-16T05:30:21.219Z,33.92
2018-12-16T05:31:21.203Z,33.92
2018-12-16T05:32:21.197Z,33.82
2018-12-16T05:33:21.200Z,33.82
2018-12-16T05:34:21.185Z,34.83
2018-12-16T05:35:21.168Z,35.05
2018-12-16T05:36:21.175Z,34.54
2018-12-16T05:37:21.147Z,34.24
2018-12-16T05:38:21.134Z,34.54
2018-12-16T05:39:21.131Z,35.65
2018-12-16T05:40:21.139Z,35.65
2018-12-16T05:41:21.097Z,35.45
2018-12-16T05:42:21.091Z,35.36
2018-12-16T05:43:21.150Z,35.16
2018-12-16T05:44:21.071Z,35.26
2018-12-16T05:45:21.052Z,35.48
2018-12-16T05:46:21.049Z,35.58
2018-12-16T05:47:21.037Z,35.68
2018-12-16T05:48:21.025Z,35.30
2018-12-16T05:49:21.018Z,36.20
2018-12-16T05:50:21.005Z,36.00
2018-12-16T05:51:20.995Z,36.00
2018-12-16T05:52:20.984Z,35.90
2018-12-16T05:53:20.975Z,36.00
2018-12-16T05:54:20.958Z,35.80
2018-12-16T05:55:20.954Z,35.82
2018-12-16T05:56:20.948Z,36.32
2018-12-16T05:57:20.932Z,36.62
2018-12-16T05:58:20.931Z,37.43
2018-12-16T05:59:20.911Z,37.13
2018-12-16T06:00:20.898Z,36.84
2018-12-16T06:01:20.892Z,37.15
2018-12-16T06:02:20.880Z,37.04
2018-12-16T06:03:20.864Z,36.64
2018-12-16T06:04:20.864Z,36.64
2018-12-16T06:05:20.860Z,37.04
2018-12-16T06:06:20.833Z,36.86
2018-12-16T06:07:20.826Z,37.46
2018-12-16T06:08:20.815Z,37.35
2018-12-16T06:09:20.818Z,37.97
2018-12-16T06:10:20.789Z,37.77
2018-12-16T06:11:20.778Z,37.77
2018-12-16T06:12:20.773Z,37.77
2018-12-16T06:13:20.767Z,37.65
2018-12-16T06:14:20.751Z,37.35
2018-12-16T06:15:20.744Z,36.76
2018-12-16T06:16:20.729Z,36.84
2018-12-16T06:17:20.712Z,36.54
2018-12-16T06:18:20.727Z,36.94
2018-12-16T06:19:20.695Z,36.84
2018-12-16T06:20:20.700Z,37.24
2018-12-16T06:21:20.676Z,37.02
2018-12-16T06:22:20.679Z,36.72
2018-12-16T06:23:20.657Z,36.32
2018-12-16T06:24:20.641Z,36.20
2018-12-16T06:25:20.638Z,35.70
2018-12-16T06:26:20.617Z,36.00
2018-12-16T06:27:20.610Z,35.90
2018-12-16T06:28:20.595Z,36.00
2018-12-16T06:29:20.587Z,35.88
2018-12-16T06:30:20.575Z,35.68
2018-12-16T06:31:20.572Z,35.28
2018-12-16T06:32:20.559Z,35.68
2018-12-16T06:33:20.540Z,35.99
2018-12-16T06:34:20.530Z,35.88
2018-12-16T06:35:20.524Z,35.66
2018-12-16T06:36:20.511Z,35.26
2018-12-16T06:37:20.529Z,34.96
2018-12-16T06:38:20.495Z,35.36
2018-12-16T06:39:20.486Z,35.06
2018-12-16T06:40:20.467Z,34.66
2018-12-16T06:41:20.470Z,34.56
2018-12-16T06:42:20.442Z,35.26
2018-12-16T06:43:20.446Z,34.56
2018-12-16T06:44:20.430Z,35.14
2018-12-16T06:45:20.415Z,35.14
2018-12-16T06:46:20.415Z,34.66
2018-12-16T06:47:20.400Z,35.25
2018-12-16T06:48:20.392Z,35.25
2018-12-16T06:49:20.377Z,35.06
2018-12-16T06:50:20.371Z,35.26
2018-12-16T06:51:20.377Z,35.06
2018-12-16T06:52:20.359Z,35.06
2018-12-16T06:53:20.340Z,35.16
2018-12-16T06:54:20.322Z,35.26
2018-12-16T06:55:20.312Z,34.96
2018-12-16T06:56:20.294Z,35.78
2018-12-16T06:57:20.296Z,35.48
2018-12-16T06:58:20.278Z,35.48
2018-12-16T06:59:20.268Z,35.28
2018-12-16T07:00:21.156Z,36.29
2018-12-16T07:01:20.245Z,36.10
2018-12-16T07:02:20.230Z,36.00
2018-12-16T07:03:20.221Z,36.00
2018-12-16T07:04:20.212Z,35.90
2018-12-16T07:05:20.198Z,35.80
2018-12-16T07:06:20.199Z,36.12
2018-12-16T07:07:20.190Z,35.82
2018-12-16T07:08:20.177Z,36.32
2018-12-16T07:09:20.160Z,36.72
2018-12-16T07:10:20.150Z,36.84
2018-12-16T07:11:20.135Z,36.84
2018-12-16T07:12:20.136Z,37.04
2018-12-16T07:13:20.123Z,37.45
2018-12-16T07:14:20.107Z,36.86
2018-12-16T07:15:20.114Z,36.96
2018-12-16T07:16:20.088Z,37.77
2018-12-16T07:17:20.087Z,37.77
2018-12-16T07:18:20.059Z,37.66
2018-12-16T07:19:20.057Z,37.57
2018-12-16T07:20:20.042Z,37.37
2018-12-16T07:21:20.042Z,37.89
2018-12-16T07:22:20.035Z,37.68
2018-12-16T07:23:20.008Z,38.19
2018-12-16T07:24:19.998Z,38.29
2018-12-16T07:25:20.017Z,37.99
2018-12-16T07:26:19.991Z,38.29
2018-12-16T07:27:19.991Z,38.09
2018-12-16T07:28:19.954Z,38.39
2018-12-16T07:29:19.980Z,38.39
2018-12-16T07:30:19.932Z,37.89
2018-12-16T07:31:19.921Z,37.57
2018-12-16T07:32:19.958Z,37.77
2018-12-16T07:33:20.019Z,37.57
2018-12-16T07:34:19.927Z,37.97
2018-12-16T07:35:19.895Z,37.97
2018-12-16T07:36:19.883Z,37.97
2018-12-16T07:37:19.859Z,37.65
2018-12-16T07:38:19.887Z,37.66
2018-12-16T07:39:19.829Z,36.64
2018-12-16T07:40:19.830Z,36.64
2018-12-16T07:41:19.813Z,36.64
2018-12-16T07:42:19.812Z,37.35
2018-12-16T07:43:19.802Z,36.42
2018-12-16T07:44:19.805Z,36.51
2018-12-16T07:45:19.823Z,35.90
2018-12-16T07:46:19.798Z,36.10
2018-12-16T07:47:19.764Z,35.90
2018-12-16T07:48:19.753Z,35.78
2018-12-16T07:49:19.727Z,35.68
2018-12-16T07:50:19.733Z,35.38
2018-12-16T07:51:19.705Z,35.66
2018-12-16T07:52:19.707Z,35.16
2018-12-16T07:53:19.694Z,35.46
2018-12-16T07:54:19.682Z,34.76
2018-12-16T07:55:19.682Z,35.06
2018-12-16T07:56:19.677Z,35.57
2018-12-16T07:57:19.640Z,35.46
2018-12-16T07:58:19.659Z,35.45
2018-12-16T07:59:19.632Z,35.46
2018-12-16T08:00:19.617Z,35.75
2018-12-16T08:01:19.602Z,34.24
2018-12-16T08:02:19.595Z,34.54
2018-12-16T08:03:19.577Z,34.84
2018-12-16T08:04:19.591Z,34.84
2018-12-16T08:05:19.558Z,34.74
2018-12-16T08:06:19.550Z,34.64
2018-12-16T08:07:19.541Z,35.45
2018-12-16T08:08:19.531Z,34.14
2018-12-16T08:09:19.557Z,34.36
2018-12-16T08:10:19.508Z,35.25
2018-12-16T08:11:19.491Z,34.96
2018-12-16T08:12:19.499Z,35.36
2018-12-16T08:13:19.472Z,34.76
2018-12-16T08:14:19.464Z,34.76
2018-12-16T08:15:19.459Z,35.46
2018-12-16T08:16:19.443Z,35.17
2018-12-16T08:17:19.435Z,35.68
2018-12-16T08:18:19.425Z,35.68
2018-12-16T08:19:19.413Z,35.68
2018-12-16T08:20:19.402Z,35.10
2018-12-16T08:21:19.396Z,36.20
2018-12-16T08:22:19.382Z,36.10
2018-12-16T08:23:19.370Z,35.80
2018-12-16T08:24:23.212Z,35.92
2018-12-16T08:25:19.353Z,35.92
2018-12-16T08:26:19.336Z,36.12
2018-12-16T08:27:19.322Z,36.02
2018-12-16T08:28:19.325Z,36.42
2018-12-16T08:29:19.305Z,36.32
2018-12-16T08:30:19.295Z,36.42
2018-12-16T08:31:19.286Z,36.84
2018-12-16T08:32:19.273Z,37.24
2018-12-16T08:33:19.259Z,37.04
2018-12-16T08:34:19.260Z,37.35
2018-12-16T08:35:19.235Z,37.26
2018-12-16T08:36:19.232Z,37.26
2018-12-16T08:37:19.230Z,36.66
2018-12-16T08:38:19.219Z,36.46
2018-12-16T08:39:20.772Z,37.77
2018-12-16T08:40:19.218Z,38.07
2018-12-16T08:41:19.179Z,37.77
2018-12-16T08:42:19.170Z,37.26
2018-12-16T08:43:19.160Z,33.44
2018-12-16T08:44:19.150Z,34.35
2018-12-16T08:45:19.144Z,34.35
2018-12-16T08:46:19.126Z,35.08
2018-12-16T08:47:19.114Z,35.99
2018-12-16T08:48:19.102Z,35.88
2018-12-16T08:49:19.100Z,36.08
2018-12-16T08:50:19.094Z,36.68
2018-12-16T08:51:19.074Z,36.90
2018-12-16T08:52:19.062Z,37.90
2018-12-16T08:53:19.050Z,37.79
2018-12-16T08:54:19.062Z,36.86
2018-12-16T08:55:19.040Z,35.83
2018-12-16T08:56:19.017Z,36.02
2018-12-16T08:57:19.015Z,33.80
2018-12-16T08:58:18.993Z,35.73
2018-12-16T08:59:18.982Z,35.75
2018-12-16T09:00:18.973Z,34.72
2018-12-16T09:01:18.962Z,35.21
2018-12-16T09:02:18.959Z,35.01
2018-12-16T09:03:18.957Z,34.89
2018-12-16T09:04:18.935Z,35.57
2018-12-16T09:05:18.926Z,34.74
2018-12-16T09:06:18.911Z,34.04
2018-12-16T09:07:18.903Z,32.93
2018-12-16T09:08:18.894Z,34.04
2018-12-16T09:09:18.884Z,34.04
2018-12-16T09:10:18.872Z,34.12
2018-12-16T09:11:18.854Z,33.60
2018-12-16T09:12:19.521Z,32.59
2018-12-16T09:13:18.873Z,32.39
2018-12-16T09:14:18.828Z,32.90
2018-12-16T09:15:18.815Z,34.22
2018-12-16T09:16:18.808Z,33.60
2018-12-16T09:17:18.803Z,32.70
2018-12-16T09:18:18.816Z,33.62
2018-12-16T09:19:18.773Z,33.91
2018-12-16T09:20:18.768Z,33.91
2018-12-16T09:21:18.751Z,33.70
2018-12-16T09:22:18.739Z,33.20
2018-12-16T09:23:18.739Z,33.28
2018-12-16T09:24:18.716Z,32.58
2018-12-16T09:25:18.763Z,32.59
2018-12-16T09:26:18.698Z,34.20
2018-12-16T09:27:18.691Z,33.92
2018-12-16T09:28:18.684Z,33.72
2018-12-16T09:29:19.392Z,34.64
2018-12-16T09:30:18.661Z,35.46
2018-12-16T09:31:18.648Z,35.06
2018-12-16T09:32:18.631Z,35.28
2018-12-16T09:33:18.619Z,35.99
2018-12-16T09:34:18.618Z,36.10
2018-12-16T09:35:18.596Z,36.20
2018-12-16T09:36:18.599Z,37.21
2018-12-16T09:37:18.583Z,37.41
2018-12-16T09:38:18.569Z,37.11
2018-12-16T09:39:18.562Z,36.82
2018-12-16T09:40:18.550Z,36.52
2018-12-16T09:41:18.534Z,37.21
2018-12-16T09:42:18.524Z,37.33
2018-12-16T09:43:18.520Z,36.72
2018-12-16T09:44:18.505Z,36.82
2018-12-16T09:45:18.493Z,36.82
2018-12-16T09:46:18.482Z,36.62
2018-12-16T09:47:18.473Z,37.53
2018-12-16T09:48:18.469Z,37.35
2018-12-16T09:49:18.449Z,37.75
2018-12-16T09:50:18.437Z,37.45
2018-12-16T09:51:18.432Z,37.65
2018-12-16T09:52:18.416Z,37.65
2018-12-16T09:53:18.410Z,37.95
2018-12-16T09:54:18.399Z,38.28
2018-12-16T09:55:18.386Z,37.87
2018-12-16T09:56:18.372Z,38.28
2018-12-16T09:57:18.369Z,38.07
2018-12-16T09:58:18.354Z,37.66
2018-12-16T09:59:18.342Z,38.17
2018-12-16T10:00:18.333Z,38.28
2018-12-16T10:01:18.328Z,38.28
2018-12-16T10:02:18.325Z,38.37
2018-12-16T10:03:18.297Z,37.59
2018-12-16T10:04:18.285Z,38.09
2018-12-16T10:05:18.277Z,38.09
2018-12-16T10:06:18.268Z,37.89
2018-12-16T10:07:18.259Z,38.39
2018-12-16T10:08:18.241Z,38.80
2018-12-16T10:09:19.471Z,38.29
2018-12-16T10:10:18.228Z,38.29
2018-12-16T10:11:18.221Z,38.49
2018-12-16T10:12:18.263Z,39.70
2018-12-16T10:13:18.193Z,39.40
2018-12-16T10:14:18.184Z,39.30
2018-12-16T10:15:18.219Z,38.19
2018-12-16T10:16:18.170Z,38.28
2018-12-16T10:17:18.214Z,38.19
2018-12-16T10:18:18.139Z,38.17
2018-12-16T10:19:18.127Z,38.28
2018-12-16T10:20:18.127Z,37.24
2018-12-16T10:21:18.109Z,37.85
2018-12-16T10:22:18.109Z,37.33
2018-12-16T10:23:18.086Z,36.20
2018-12-16T10:24:18.076Z,35.78
2018-12-16T10:25:18.069Z,35.86
2018-12-16T10:26:18.060Z,35.14
2018-12-16T10:27:18.045Z,34.94
2018-12-16T10:28:18.051Z,34.16
2018-12-16T10:29:18.025Z,35.46
2018-12-16T10:30:18.111Z,33.78
2018-12-16T10:31:18.003Z,33.78
2018-12-16T10:32:17.994Z,34.49
2018-12-16T10:33:17.980Z,35.50
2018-12-16T10:34:18.001Z,36.12
2018-12-16T10:35:17.968Z,35.82
2018-12-16T10:36:17.950Z,36.02
2018-12-16T10:37:17.940Z,36.13
2018-12-16T10:38:17.930Z,36.44
2018-12-16T10:39:17.918Z,36.84
2018-12-16T10:40:17.932Z,37.35
2018-12-16T10:41:17.895Z,37.24
2018-12-16T10:42:17.884Z,37.24
2018-12-16T10:43:17.875Z,34.32
2018-12-16T10:44:17.864Z,32.01
2018-12-16T10:45:17.850Z,34.13
2018-12-16T10:46:17.887Z,32.53
2018-12-16T10:47:17.830Z,35.06
2018-12-16T10:48:17.831Z,34.67
2018-12-16T10:49:17.816Z,34.88
2018-12-16T10:50:17.799Z,36.08
2018-12-16T10:51:17.781Z,35.88
2018-12-16T10:52:17.770Z,37.50
2018-12-16T10:53:17.772Z,37.08
2018-12-16T10:54:17.766Z,37.59
2018-12-16T10:55:17.759Z,37.79
2018-12-16T10:56:17.738Z,37.59
2018-12-16T10:57:17.726Z,36.68
2018-12-16T10:58:17.717Z,36.68
2018-12-16T10:59:17.706Z,36.88
2018-12-16T11:00:17.693Z,37.08
2018-12-16T11:01:17.686Z,36.96
2018-12-16T11:02:17.676Z,38.07
2018-12-16T11:03:17.677Z,38.07
2018-12-16T11:04:17.649Z,37.66
2018-12-16T11:05:17.641Z,35.14
2018-12-16T11:06:17.636Z,36.35
2018-12-16T11:07:17.620Z,35.35
2018-12-16T11:08:17.614Z,35.24
2018-12-16T11:09:17.602Z,36.05
2018-12-16T11:10:17.590Z,38.07
2018-12-16T11:11:17.607Z,37.06
2018-12-16T11:12:17.573Z,37.97
2018-12-16T11:13:17.560Z,37.37
2018-12-16T11:14:17.541Z,38.07
2018-12-16T11:15:17.541Z,37.77
2018-12-16T11:16:17.528Z,38.07
2018-12-16T11:17:17.513Z,38.15
2018-12-16T11:18:17.494Z,38.56
2018-12-16T11:19:17.620Z,38.56
2018-12-16T11:20:17.525Z,39.04
2018-12-16T11:21:17.462Z,39.35
2018-12-16T11:22:17.459Z,38.75
2018-12-16T11:23:17.788Z,39.94
2018-12-16T11:24:17.460Z,38.82
2018-12-16T11:25:18.464Z,40.03
2018-12-16T11:26:17.415Z,36.81
2018-12-16T11:27:17.424Z,39.33
2018-12-16T11:28:17.387Z,37.93
2018-12-16T11:29:17.389Z,37.63
2018-12-16T11:30:17.391Z,36.82
2018-12-16T11:31:17.423Z,37.73
2018-12-16T11:32:17.363Z,38.34
2018-12-16T11:33:17.384Z,37.84
2018-12-16T11:34:17.334Z,38.34
2018-12-16T11:35:17.318Z,38.95
2018-12-16T11:36:17.335Z,38.95
2018-12-16T11:37:17.304Z,40.66
2018-12-16T11:38:17.299Z,37.13
2018-12-16T11:39:17.822Z,38.64
2018-12-16T11:40:17.273Z,38.95
2018-12-16T11:41:17.255Z,40.96
2018-12-16T11:42:17.244Z,39.57
2018-12-16T11:43:17.244Z,37.65
2018-12-16T11:44:17.230Z,42.09
2018-12-16T11:45:17.222Z,40.58
2018-12-16T11:46:17.212Z,41.10
2018-12-16T11:47:17.377Z,40.70
2018-12-16T11:48:17.475Z,40.09
2018-12-16T11:49:17.177Z,40.70
2018-12-16T11:50:17.179Z,39.08
2018-12-16T11:51:17.157Z,40.09
2018-12-16T11:52:17.139Z,38.37
2018-12-16T11:53:17.136Z,37.57
2018-12-16T11:54:17.119Z,37.87
2018-12-16T11:55:17.109Z,37.66
2018-12-16T11:56:17.110Z,35.85
2018-12-16T11:57:17.104Z,35.55
2018-12-16T11:58:17.075Z,35.35
2018-12-16T11:59:17.067Z,33.81
2018-12-16T12:00:17.062Z,34.22
2018-12-16T12:01:17.046Z,35.73
2018-12-16T12:02:17.030Z,33.31
2018-12-16T12:03:17.033Z,34.52
2018-12-16T12:04:17.023Z,33.41
2018-12-16T12:05:17.002Z,33.11
2018-12-16T12:06:17.008Z,33.81
2018-12-16T12:07:17.040Z,35.83
2018-12-16T12:08:16.967Z,33.83
2018-12-16T12:09:16.980Z,30.60
2018-12-16T12:10:16.990Z,33.12
2018-12-16T12:11:17.903Z,33.02
2018-12-16T12:12:16.930Z,31.91
2018-12-16T12:13:16.916Z,33.12
2018-12-16T12:14:16.906Z,31.79
2018-12-16T12:15:16.908Z,32.20
2018-12-16T12:16:16.915Z,33.31
2018-12-16T12:17:16.881Z,34.03
2018-12-16T12:18:16.872Z,32.42
2018-12-16T12:19:16.853Z,33.04
2018-12-16T12:20:16.909Z,35.38
2018-12-16T12:21:16.847Z,35.06
2018-12-16T12:22:16.865Z,34.75
2018-12-16T12:23:16.815Z,35.75
2018-12-16T12:24:16.813Z,34.13
2018-12-16T12:25:19.919Z,34.82
2018-12-16T12:26:16.795Z,32.78
2018-12-16T12:27:16.802Z,32.87
2018-12-16T12:28:16.768Z,32.07
2018-12-16T12:29:16.822Z,32.78
2018-12-16T12:30:16.748Z,33.48
2018-12-16T12:31:16.753Z,32.57
2018-12-16T12:32:16.721Z,32.47
2018-12-16T12:33:16.708Z,33.48
2018-12-16T12:34:16.690Z,33.09
2018-12-16T12:35:16.704Z,34.00
2018-12-16T12:36:16.772Z,33.09
2018-12-16T12:37:16.663Z,33.50
2018-12-16T12:38:16.663Z,32.49
2018-12-16T12:39:16.672Z,33.29
2018-12-16T12:40:16.742Z,32.82
2018-12-16T12:41:16.619Z,32.21
2018-12-16T12:42:16.619Z,34.84
2018-12-16T12:43:16.603Z,32.84
2018-12-16T12:44:16.594Z,34.55
2018-12-16T12:45:16.582Z,32.75
2018-12-16T12:46:16.566Z,34.45
2018-12-16T12:47:16.559Z,34.27
2018-12-16T12:48:16.586Z,34.06
2018-12-16T12:49:16.535Z,33.05
2018-12-16T12:50:16.602Z,34.67
2018-12-16T12:51:16.515Z,35.68
2018-12-16T12:52:16.511Z,35.88